createdAt,value
2019-02-25T00:04:47.862Z,102926.53
2019-02-25T00:07:17.214Z,102909.95
2019-02-25T00:09:46.712Z,102909.06
2019-02-25T00:12:16.960Z,102922.59
2019-02-25T00:14:46.339Z,102925.20
2019-02-25T00:17:15.880Z,102905.13
2019-02-25T00:22:33.666Z,102895.95
2019-02-25T00:25:03.186Z,102875.42
2019-02-25T00:27:32.485Z,102876.73
2019-02-25T00:30:02.332Z,102909.47
2019-02-25T00:32:31.652Z,102925.66
2019-02-25T00:35:01.219Z,102913.41
2019-02-25T00:37:30.528Z,102906.02
2019-02-25T00:42:49.080Z,102915.16
2019-02-25T00:45:18.390Z,102905.13
2019-02-25T00:47:48.152Z,102885.05
2019-02-25T00:50:36.756Z,102879.34
2019-02-25T00:53:06.104Z,102879.34
2019-02-25T00:55:35.970Z,102886.34
2019-02-25T00:58:05.272Z,102871.48
2019-02-25T01:03:09.598Z,102871.48
2019-02-25T01:05:39.042Z,102875.86
2019-02-25T01:08:08.557Z,102872.34
2019-02-25T01:10:37.975Z,102878.89
2019-02-25T01:13:07.368Z,102872.77
2019-02-25T01:15:36.692Z,102876.28
2019-02-25T01:18:06.253Z,102874.97
2019-02-25T01:20:35.621Z,102879.34
2019-02-25T01:23:05.291Z,102876.70
2019-02-25T01:25:34.625Z,102863.61
2019-02-25T01:28:04.391Z,102861.00
2019-02-25T01:30:33.774Z,102852.30
2019-02-25T01:33:03.254Z,102848.79
2019-02-25T01:35:32.613Z,102846.16
2019-02-25T01:38:02.501Z,102853.13
2019-02-25T01:40:31.852Z,102849.66
2019-02-25T01:43:01.254Z,102857.52
2019-02-25T01:45:30.559Z,102802.36
2019-02-25T01:48:00.369Z,102852.28
2019-02-25T01:50:29.712Z,102858.38
2019-02-25T01:52:59.546Z,102857.95
2019-02-25T01:55:28.851Z,102864.93
2019-02-25T01:57:58.344Z,102855.34
2019-02-25T02:03:53.070Z,102861.02
2019-02-25T02:06:22.403Z,102852.30
2019-02-25T02:08:51.708Z,102854.92
2019-02-25T02:11:21.120Z,102859.28
2019-02-25T02:16:25.460Z,102847.08
2019-02-25T02:18:54.968Z,102858.86
2019-02-25T02:21:24.382Z,102860.14
2019-02-25T02:23:53.787Z,102848.30
2019-02-25T02:26:23.119Z,102871.47
2019-02-25T02:28:52.518Z,102876.30
2019-02-25T02:31:21.824Z,102881.11
2019-02-25T02:33:51.163Z,102878.92
2019-02-25T02:36:20.474Z,102879.34
2019-02-25T02:38:49.794Z,102879.79
2019-02-25T02:41:19.299Z,102881.11
2019-02-25T02:43:48.624Z,102830.33
2019-02-25T02:46:55.981Z,102874.98
2019-02-25T02:49:25.319Z,102862.72
2019-02-25T02:51:54.769Z,102889.83
2019-02-25T02:54:24.118Z,102883.74
2019-02-25T02:57:12.433Z,102883.28
2019-02-25T02:59:42.034Z,102873.27
2019-02-25T03:02:11.345Z,102863.64
2019-02-25T03:04:40.695Z,102858.39
2019-02-25T03:07:10.001Z,102863.64
2019-02-25T03:09:39.690Z,102866.25
2019-02-25T03:12:09.005Z,102815.45
2019-02-25T03:14:38.775Z,102879.33
2019-02-25T03:17:08.098Z,102857.44
2019-02-25T03:19:37.741Z,102882.81
2019-02-25T03:22:07.070Z,102880.19
2019-02-25T03:24:36.470Z,102881.07
2019-02-25T03:27:05.802Z,102875.35
2019-02-25T03:29:35.497Z,102877.53
2019-02-25T03:32:04.992Z,102876.22
2019-02-25T03:37:23.458Z,102874.88
2019-02-25T03:39:52.748Z,102886.23
2019-02-25T03:45:18.053Z,102876.59
2019-02-25T03:47:47.377Z,102880.04
2019-02-25T03:50:16.711Z,102824.86
2019-02-25T03:52:46.203Z,102863.45
2019-02-25T03:55:16.777Z,102866.05
2019-02-25T03:57:46.087Z,102851.59
2019-02-25T04:00:35.461Z,102860.72
2019-02-25T04:03:04.994Z,102857.60
2019-02-25T04:05:34.360Z,102858.02
2019-02-25T04:08:03.796Z,102872.80
2019-02-25T04:10:33.152Z,102881.89
2019-02-25T04:13:02.590Z,102881.45
2019-02-25T04:15:51.099Z,102873.55
2019-02-25T04:18:20.480Z,102879.62
2019-02-25T04:20:49.954Z,102852.84
2019-02-25T04:23:19.269Z,102881.23
2019-02-25T04:25:48.616Z,102875.08
2019-02-25T04:28:17.956Z,102870.23
2019-02-25T04:30:47.287Z,102880.22
2019-02-25T04:33:35.734Z,102873.16
2019-02-25T04:36:05.132Z,102872.27
2019-02-25T04:38:34.711Z,102881.78
2019-02-25T04:41:04.043Z,102886.54
2019-02-25T04:43:33.364Z,102892.14
2019-02-25T04:46:02.689Z,102885.97
2019-02-25T04:48:32.010Z,102872.84
2019-02-25T04:51:01.936Z,102875.85
2019-02-25T04:53:31.269Z,102832.38
2019-02-25T04:56:00.580Z,102867.47
2019-02-25T04:58:30.175Z,102871.75
2019-02-25T05:00:59.475Z,102867.80
2019-02-25T05:03:28.918Z,102864.28
2019-02-25T05:05:58.213Z,102863.84
2019-02-25T05:08:27.616Z,102859.49
2019-02-25T05:10:56.963Z,102864.72
2019-02-25T05:13:26.293Z,102862.50
2019-02-25T05:15:55.727Z,102863.38
2019-02-25T05:21:00.395Z,102866.38
2019-02-25T05:26:23.613Z,102865.44
2019-02-25T05:28:53.124Z,102875.05
2019-02-25T05:31:22.459Z,102824.23
2019-02-25T05:33:51.772Z,102866.74
2019-02-25T05:36:21.091Z,102859.34
2019-02-25T05:39:09.448Z,102864.52
2019-02-25T05:41:57.849Z,102882.77
2019-02-25T05:44:27.464Z,102875.76
2019-02-25T05:46:56.763Z,102848.73
2019-02-25T05:49:27.201Z,102887.84
2019-02-25T05:51:56.516Z,102868.43
2019-02-25T05:54:25.833Z,102880.73
2019-02-25T05:56:55.118Z,102855.64
2019-02-25T05:59:24.542Z,102882.76
2019-02-25T06:01:53.867Z,102874.52
2019-02-25T06:04:23.238Z,102860.12
2019-02-25T06:06:52.544Z,102743.95
2019-02-25T06:09:22.190Z,102852.59
2019-02-25T06:11:51.495Z,102738.66
2019-02-25T06:14:20.983Z,102829.90
2019-02-25T06:16:50.267Z,102804.72
2019-02-25T06:19:19.607Z,102805.12
2019-02-25T06:21:48.880Z,102803.77
2019-02-25T06:24:18.376Z,102803.73
2019-02-25T06:26:47.688Z,102717.63
2019-02-25T06:29:17.272Z,102847.61
2019-02-25T06:31:46.638Z,102808.38
2019-02-25T06:34:16.116Z,102842.72
2019-02-25T06:36:45.478Z,102824.39
2019-02-25T06:39:14.995Z,102786.49
2019-02-25T06:41:44.284Z,102795.62
2019-02-25T06:44:13.854Z,102792.17
2019-02-25T06:46:43.159Z,102755.97
2019-02-25T06:49:31.504Z,102823.49
2019-02-25T06:52:01.146Z,102834.30
2019-02-25T06:54:30.427Z,102832.97
2019-02-25T06:56:59.885Z,102852.08
2019-02-25T06:59:29.180Z,102842.02
2019-02-25T07:04:51.724Z,102805.45
2019-02-25T07:07:35.583Z,102795.44
2019-02-25T07:10:13.879Z,102803.37
2019-02-25T07:13:01.554Z,102793.98
2019-02-25T07:15:49.746Z,102800.20
2019-02-25T07:18:38.149Z,102829.46
2019-02-25T07:21:16.436Z,102830.83
2019-02-25T07:24:04.223Z,102812.12
2019-02-25T07:29:58.391Z,102805.72
2019-02-25T07:32:46.574Z,102792.34
2019-02-25T07:35:33.313Z,102801.53
2019-02-25T07:38:24.399Z,102814.66
2019-02-25T07:41:24.814Z,102824.70
2019-02-25T07:44:12.989Z,102828.67
2019-02-25T07:46:50.172Z,102816.47
2019-02-25T07:49:38.359Z,102830.88
2019-02-25T07:52:33.848Z,102840.08
2019-02-25T07:55:25.180Z,102791.92
2019-02-25T07:58:13.986Z,102746.50
2019-02-25T08:01:03.564Z,102826.34
2019-02-25T08:03:52.783Z,102825.55
2019-02-25T08:06:31.715Z,102812.55
2019-02-25T08:09:19.095Z,102822.23
2019-02-25T08:12:07.315Z,102814.49
2019-02-25T08:15:14.602Z,102794.86
2019-02-25T08:18:02.896Z,102812.05
2019-02-25T08:20:51.250Z,102811.70
2019-02-25T08:26:32.593Z,102832.40
2019-02-25T08:29:20.925Z,102823.30
2019-02-25T08:32:09.152Z,102832.52
2019-02-25T08:34:57.351Z,102822.95
2019-02-25T08:38:12.427Z,102835.23
2019-02-25T08:41:23.105Z,102851.41
2019-02-25T08:44:11.460Z,102844.94
2019-02-25T08:47:01.271Z,102837.16
2019-02-25T08:49:44.337Z,102835.03
2019-02-25T08:52:13.942Z,102856.42
2019-02-25T08:54:43.471Z,102848.62
2019-02-25T08:57:13.079Z,102845.19
2019-02-25T08:59:42.397Z,102825.10
2019-02-25T09:02:12.549Z,102833.00
2019-02-25T09:05:01.164Z,102840.88
2019-02-25T09:07:30.500Z,102833.02
2019-02-25T09:10:00.143Z,102832.15
2019-02-25T09:12:29.484Z,102828.23
2019-02-25T09:14:59.065Z,102826.95
2019-02-25T09:17:46.530Z,102824.34
2019-02-25T09:20:16.350Z,102820.02
2019-02-25T09:22:45.908Z,102825.27
2019-02-25T09:25:15.328Z,102834.03
2019-02-25T09:27:44.819Z,102838.41
2019-02-25T09:30:15.978Z,102831.41
2019-02-25T09:32:45.888Z,102834.05
2019-02-25T09:35:15.505Z,102819.20
2019-02-25T09:37:45.128Z,102822.73
2019-02-25T09:40:15.523Z,102764.57
2019-02-25T09:43:03.923Z,102824.48
2019-02-25T09:45:33.346Z,102842.84
2019-02-25T09:48:02.680Z,102801.28
2019-02-25T09:50:32.247Z,102833.25
2019-02-25T09:53:01.562Z,102811.38
2019-02-25T09:58:19.291Z,102824.05
2019-02-25T10:00:48.584Z,102842.87
2019-02-25T10:05:53.521Z,102828.87
2019-02-25T10:08:22.837Z,102824.97
2019-02-25T10:10:52.296Z,102826.28
2019-02-25T10:13:21.580Z,102775.98
2019-02-25T10:15:51.081Z,102818.41
2019-02-25T10:18:20.373Z,102734.45
2019-02-25T10:20:49.963Z,102826.28
2019-02-25T10:23:19.336Z,102824.54
2019-02-25T10:25:48.852Z,102829.33
2019-02-25T10:28:18.154Z,102832.38
2019-02-25T10:30:52.896Z,102831.52
2019-02-25T10:33:18.833Z,102746.67
2019-02-25T10:35:48.109Z,102827.98
2019-02-25T10:38:17.462Z,102832.34
2019-02-25T10:40:47.519Z,102828.85
2019-02-25T10:43:18.041Z,102817.42
2019-02-25T10:45:47.343Z,102816.94
2019-02-25T10:48:35.773Z,102813.86
2019-02-25T10:51:07.004Z,102817.80
2019-02-25T10:53:36.253Z,102821.72
2019-02-25T10:56:14.507Z,102817.34
2019-02-25T10:58:44.422Z,102808.15
2019-02-25T11:01:17.575Z,102741.77
2019-02-25T11:03:45.541Z,102818.23
2019-02-25T11:06:29.166Z,102809.90
2019-02-25T11:12:04.197Z,102800.66
2019-02-25T11:14:35.727Z,102809.42
2019-02-25T11:17:05.342Z,102770.96
2019-02-25T11:19:34.670Z,102799.72
2019-02-25T11:22:22.936Z,102771.24
2019-02-25T11:24:53.514Z,102770.77
2019-02-25T11:27:23.326Z,102769.03
2019-02-25T11:29:52.887Z,102769.02
2019-02-25T11:32:23.699Z,102774.27
2019-02-25T11:34:53.283Z,102779.52
2019-02-25T11:37:24.722Z,102727.95
2019-02-25T11:39:54.925Z,102783.83
2019-02-25T11:42:25.109Z,102775.94
2019-02-25T11:44:56.501Z,102770.64
2019-02-25T11:47:25.900Z,102771.90
2019-02-25T11:49:55.190Z,102778.95
2019-02-25T11:52:24.699Z,102774.20
2019-02-25T11:54:54.130Z,102775.52
2019-02-25T11:57:23.891Z,102761.88
2019-02-25T11:59:53.191Z,102757.45
2019-02-25T12:02:25.420Z,102751.25
2019-02-25T12:04:53.630Z,102749.50
2019-02-25T12:07:23.338Z,102747.77
2019-02-25T12:09:52.693Z,102739.86
2019-02-25T12:15:12.931Z,102738.06
2019-02-25T12:17:42.357Z,102723.62
2019-02-25T12:20:32.929Z,102737.59
2019-02-25T12:23:02.249Z,102752.95
2019-02-25T12:25:31.559Z,102738.91
2019-02-25T12:28:00.879Z,102722.20
2019-02-25T12:30:49.161Z,102716.95
2019-02-25T12:33:18.513Z,102717.83
2019-02-25T12:35:59.087Z,102709.02
2019-02-25T12:38:28.425Z,102703.75
2019-02-25T12:40:58.248Z,102690.61
2019-02-25T12:43:27.560Z,102697.55
2019-02-25T12:46:16.044Z,102700.65
2019-02-25T12:48:45.451Z,102706.38
2019-02-25T12:51:14.762Z,102719.52
2019-02-25T12:53:44.455Z,102725.70
2019-02-25T12:56:13.771Z,102669.47
2019-02-25T12:58:43.458Z,102735.36
2019-02-25T13:01:12.763Z,102736.20
2019-02-25T13:03:42.821Z,102742.42
2019-02-25T13:06:12.136Z,102735.32
2019-02-25T13:08:42.007Z,102730.94
2019-02-25T13:11:11.348Z,102648.52
2019-02-25T13:13:59.700Z,102736.55
2019-02-25T13:16:29.183Z,102710.00
2019-02-25T13:18:58.536Z,102736.13
2019-02-25T13:21:28.422Z,102736.94
2019-02-25T13:23:59.451Z,102741.73
2019-02-25T13:26:29.281Z,102720.64
2019-02-25T13:28:59.897Z,102695.28
2019-02-25T13:31:29.185Z,102718.73
2019-02-25T13:33:58.685Z,102718.60
2019-02-25T13:36:39.463Z,102718.60
2019-02-25T13:39:27.746Z,102712.92
2019-02-25T13:41:57.100Z,102703.22
2019-02-25T13:44:26.379Z,102688.29
2019-02-25T13:47:14.874Z,102599.73
2019-02-25T13:49:44.197Z,102681.98
2019-02-25T13:52:32.720Z,102665.98
2019-02-25T13:58:09.463Z,102676.52
2019-02-25T14:00:39.228Z,102675.61
2019-02-25T14:03:08.519Z,102674.71
2019-02-25T14:05:38.278Z,102683.11
2019-02-25T14:08:26.875Z,102677.50
2019-02-25T14:10:56.169Z,102677.50
2019-02-25T14:13:45.184Z,102675.92
2019-02-25T14:16:27.306Z,102669.01
2019-02-25T14:18:56.655Z,102669.01
2019-02-25T14:21:26.050Z,102666.19
2019-02-25T14:24:14.763Z,102649.23
2019-02-25T14:26:55.274Z,102644.88
2019-02-25T14:29:26.421Z,102644.88
2019-02-25T14:31:55.640Z,102647.11
2019-02-25T14:34:25.032Z,102642.75
2019-02-25T14:36:55.448Z,102647.59
2019-02-25T14:39:28.422Z,102636.67
2019-02-25T14:41:59.245Z,102640.83
2019-02-25T14:44:32.447Z,102640.83
2019-02-25T14:47:02.568Z,102640.45
2019-02-25T14:49:32.669Z,102634.81
2019-02-25T14:52:02.046Z,102637.52
2019-02-25T14:54:32.288Z,102644.54
2019-02-25T14:57:02.779Z,102643.22
2019-02-25T14:59:32.096Z,102635.83
2019-02-25T15:02:03.574Z,102641.50
2019-02-25T15:04:34.771Z,102643.69
2019-02-25T15:07:05.904Z,102605.45
2019-02-25T15:09:36.963Z,102646.47
2019-02-25T15:12:07.485Z,102649.13
2019-02-25T15:14:37.533Z,102650.95
2019-02-25T15:17:10.430Z,102649.66
2019-02-25T15:19:58.708Z,102640.09
2019-02-25T15:22:30.105Z,102655.39
2019-02-25T15:24:59.539Z,102645.74
2019-02-25T15:27:29.249Z,102640.91
2019-02-25T15:29:58.608Z,102644.84
2019-02-25T15:35:03.812Z,102593.39
2019-02-25T15:37:33.152Z,102628.23
2019-02-25T15:40:18.174Z,102615.09
2019-02-25T15:43:20.370Z,102612.89
2019-02-25T15:45:48.268Z,102595.83
2019-02-25T15:48:43.412Z,102590.58
2019-02-25T15:51:12.934Z,102583.56
2019-02-25T15:53:48.669Z,102605.41
2019-02-25T15:56:15.679Z,102589.80
2019-02-25T15:58:47.097Z,102598.44
2019-02-25T16:04:13.460Z,102622.98
2019-02-25T16:06:42.948Z,102633.53
2019-02-25T16:09:51.618Z,102641.41
2019-02-25T16:12:23.147Z,102642.76
2019-02-25T16:14:53.138Z,102656.30
2019-02-25T16:17:24.340Z,102657.19
2019-02-25T16:20:06.747Z,102649.34
2019-02-25T16:25:13.848Z,102637.13
2019-02-25T16:27:45.037Z,102646.30
2019-02-25T16:32:50.266Z,102650.22
2019-02-25T16:38:27.342Z,102653.70
2019-02-25T16:40:58.760Z,102645.83
2019-02-25T16:43:29.256Z,102654.61
2019-02-25T16:45:59.470Z,102648.47
2019-02-25T16:48:30.836Z,102638.89
2019-02-25T16:51:02.561Z,102638.02
2019-02-25T16:53:34.856Z,102627.52
2019-02-25T16:56:05.092Z,102615.69
2019-02-25T16:58:35.991Z,102617.91
2019-02-25T17:01:17.234Z,102617.93
2019-02-25T17:03:48.248Z,102603.47
2019-02-25T17:06:18.033Z,102603.92
2019-02-25T17:08:48.777Z,102599.58
2019-02-25T17:11:20.112Z,102606.16
2019-02-25T17:13:49.903Z,102610.98
2019-02-25T17:16:38.464Z,102591.29
2019-02-25T17:19:07.819Z,102589.08
2019-02-25T17:21:37.359Z,102581.63
2019-02-25T17:24:07.383Z,102593.45
2019-02-25T17:26:38.207Z,102590.85
2019-02-25T17:29:07.519Z,102597.87
2019-02-25T17:31:38.628Z,102594.39
2019-02-25T17:36:56.474Z,102582.99
2019-02-25T17:39:26.367Z,102564.64
2019-02-25T17:41:57.278Z,102458.27
2019-02-25T17:44:28.361Z,102547.16
2019-02-25T17:47:00.197Z,102545.45
2019-02-25T17:49:48.226Z,102537.17
2019-02-25T17:52:18.518Z,102535.86
2019-02-25T17:54:49.152Z,102512.23
2019-02-25T17:57:18.739Z,102496.92
2019-02-25T17:59:49.323Z,102505.22
2019-02-25T18:02:19.576Z,102450.75
2019-02-25T18:04:50.918Z,102479.06
2019-02-25T18:07:20.133Z,102479.06
2019-02-25T18:09:49.483Z,102529.70
2019-02-25T18:12:19.164Z,102506.93
2019-02-25T18:14:48.577Z,102489.45
2019-02-25T18:17:19.341Z,102501.73
2019-02-25T18:19:50.179Z,102529.70
2019-02-25T18:22:20.817Z,102537.12
2019-02-25T18:24:50.532Z,102517.48
2019-02-25T18:27:19.977Z,102534.49
2019-02-25T18:29:50.354Z,102541.09
2019-02-25T18:32:20.490Z,102559.92
2019-02-25T18:34:52.140Z,102545.06
2019-02-25T18:37:22.084Z,102531.47
2019-02-25T18:39:53.939Z,102550.72
2019-02-25T18:42:23.396Z,102578.27
2019-02-25T18:44:53.550Z,102436.97
2019-02-25T18:47:35.852Z,102570.00
2019-02-25T18:50:29.016Z,102587.43
2019-02-25T18:53:01.201Z,102574.30
2019-02-25T18:55:32.103Z,102577.79
2019-02-25T18:58:01.533Z,102570.80
2019-02-25T19:00:51.558Z,102567.28
2019-02-25T19:03:20.915Z,102572.98
2019-02-25T19:05:51.036Z,102564.22
2019-02-25T19:08:22.935Z,102549.78
2019-02-25T19:10:54.968Z,102559.84
2019-02-25T19:13:25.273Z,102553.30
2019-02-25T19:15:57.097Z,102545.39
2019-02-25T19:18:29.424Z,102545.80
2019-02-25T19:20:59.776Z,102549.74
2019-02-25T19:23:31.259Z,102548.02
2019-02-25T19:26:04.058Z,102509.23
2019-02-25T19:28:36.083Z,102466.94
2019-02-25T19:31:08.171Z,102559.35
2019-02-25T19:33:37.313Z,102563.75
2019-02-25T19:36:45.975Z,102492.21
2019-02-25T19:42:05.639Z,102552.79
2019-02-25T19:44:36.532Z,102568.11
2019-02-25T19:47:07.923Z,102569.84
2019-02-25T19:49:38.980Z,102583.84
2019-02-25T19:52:09.750Z,102566.37
2019-02-25T19:54:40.863Z,102578.61
2019-02-25T19:57:11.595Z,102587.39
2019-02-25T19:59:43.379Z,102594.38
2019-02-25T20:02:13.534Z,102582.15
2019-02-25T20:04:45.037Z,102577.74
2019-02-25T20:07:16.061Z,102575.56
2019-02-25T20:09:46.095Z,102575.10
2019-02-25T20:12:16.324Z,102568.09
2019-02-25T20:14:47.133Z,102580.35
2019-02-25T20:17:16.984Z,102592.60
2019-02-25T20:19:49.941Z,102579.91
2019-02-25T20:22:19.395Z,102580.31
2019-02-25T20:24:50.621Z,102570.70
2019-02-25T20:27:20.386Z,102583.42
2019-02-25T20:29:50.078Z,102586.07
2019-02-25T20:32:20.731Z,102582.16
2019-02-25T20:34:52.304Z,102578.23
2019-02-25T20:37:22.991Z,102577.77
2019-02-25T20:39:52.882Z,102559.50
2019-02-25T20:42:24.435Z,102528.09
2019-02-25T20:44:55.282Z,102569.97
2019-02-25T20:47:25.101Z,102576.96
2019-02-25T20:49:56.061Z,102567.38
2019-02-25T20:52:25.948Z,102561.28
2019-02-25T20:54:55.311Z,102562.61
2019-02-25T20:57:24.920Z,102555.16
2019-02-25T20:59:55.416Z,102560.00
2019-02-25T21:02:25.737Z,102573.55
2019-02-25T21:04:58.172Z,102566.55
2019-02-25T21:10:16.814Z,102566.56
2019-02-25T21:12:46.569Z,102566.14
2019-02-25T21:15:16.465Z,102572.23
2019-02-25T21:17:46.300Z,102567.46
2019-02-25T21:20:15.976Z,102564.84
2019-02-25T21:22:45.436Z,102572.25
2019-02-25T21:25:14.874Z,102555.70
2019-02-25T21:27:44.659Z,102578.81
2019-02-25T21:30:15.612Z,102574.46
2019-02-25T21:32:47.202Z,102581.45
2019-02-25T21:35:16.716Z,102576.68
2019-02-25T21:37:48.273Z,102574.08
2019-02-25T21:40:17.394Z,102580.22
2019-02-25T21:42:49.299Z,102576.30
2019-02-25T21:45:20.177Z,102568.45
2019-02-25T21:47:52.285Z,102564.95
2019-02-25T21:50:20.550Z,102468.57
2019-02-25T21:52:50.011Z,102561.45
2019-02-25T21:55:19.634Z,102571.52
2019-02-25T21:57:49.319Z,102569.33
2019-02-25T22:00:18.939Z,102571.10
2019-02-25T22:02:50.923Z,102576.34
2019-02-25T22:05:21.286Z,102489.52
2019-02-25T22:07:54.370Z,102563.67
2019-02-25T22:10:22.492Z,102559.73
2019-02-25T22:12:51.896Z,102559.73
2019-02-25T22:18:31.861Z,102507.35
2019-02-25T22:21:05.171Z,102560.58
2019-02-25T22:23:33.352Z,102524.77
2019-02-25T22:26:03.878Z,102542.65
2019-02-25T22:28:34.825Z,102543.95
2019-02-25T22:31:06.600Z,102498.64
2019-02-25T22:33:35.664Z,102553.15
2019-02-25T22:39:01.772Z,102559.28
2019-02-25T22:41:31.188Z,102553.58
2019-02-25T22:44:02.093Z,102550.95
2019-02-25T22:46:36.653Z,102514.34
2019-02-25T22:49:04.998Z,102546.59
2019-02-25T22:51:55.750Z,102547.49
2019-02-25T22:54:24.459Z,102550.11
2019-02-25T22:56:53.966Z,102561.46
2019-02-25T22:59:23.342Z,102565.84
2019-02-25T23:01:52.862Z,102570.21
2019-02-25T23:04:24.197Z,102571.95
2019-02-25T23:06:55.641Z,102574.15
2019-02-25T23:09:25.821Z,102573.31
2019-02-25T23:11:56.100Z,102575.47
2019-02-25T23:15:06.071Z,102573.73
2019-02-25T23:17:37.579Z,102592.07
2019-02-25T23:20:09.378Z,102596.88
2019-02-25T23:22:40.097Z,102544.47
2019-02-25T23:25:09.726Z,102576.33
2019-02-25T23:27:39.299Z,102575.47
2019-02-25T23:30:09.081Z,102569.34
2019-02-25T23:32:39.414Z,102581.54
2019-02-25T23:35:11.512Z,102592.88
2019-02-25T23:37:40.257Z,102593.77
2019-02-25T23:40:12.024Z,102590.25
2019-02-25T23:42:41.957Z,102589.36
2019-02-25T23:45:13.016Z,102585.02
2019-02-25T23:47:43.473Z,102586.31
2019-02-25T23:50:13.796Z,102587.20
2019-02-25T23:52:44.541Z,102583.28
2019-02-25T23:55:16.492Z,102584.58
2019-02-25T23:57:45.030Z,102566.64
